sensor_id;sensor_type;location;lat;lon;timestamp;P1;durP1;ratioP1;P2;durP2;ratioP2
20067;SDS011;10194;50.824;7.134;2023-08-12T00:01:42;170.90;;;102.57;;
20067;SDS011;10194;50.824;7.134;2023-08-12T00:04:08;172.10;;;103.73;;
20067;SDS011;10194;50.824;7.134;2023-08-12T00:06:33;175.77;;;104.03;;
20067;SDS011;10194;50.824;7.134;2023-08-12T00:08:59;171.27;;;103.07;;
20067;SDS011;10194;50.824;7.134;2023-08-12T00:11:25;167.33;;;102.07;;
20067;SDS011;10194;50.824;7.134;2023-08-12T00:13:51;171.27;;;101.77;;
20067;SDS011;10194;50.824;7.134;2023-08-12T00:16:16;167.93;;;102.23;;
20067;SDS011;10194;50.824;7.134;2023-08-12T00:18:42;170.03;;;103.23;;
20067;SDS011;10194;50.824;7.134;2023-08-12T00:21:08;176.50;;;106.20;;
20067;SDS011;10194;50.824;7.134;2023-08-12T00:23:37;168.87;;;101.80;;
20067;SDS011;10194;50.824;7.134;2023-08-12T00:26:09;176.40;;;103.73;;
20067;SDS011;10194;50.824;7.134;2023-08-12T00:28:35;175.03;;;104.97;;
20067;SDS011;10194;50.824;7.134;2023-08-12T00:31:01;177.87;;;104.70;;
20067;SDS011;10194;50.824;7.134;2023-08-12T00:33:28;180.00;;;104.37;;
20067;SDS011;10194;50.824;7.134;2023-08-12T00:35:53;171.87;;;104.90;;
20067;SDS011;10194;50.824;7.134;2023-08-12T00:38:19;177.53;;;105.97;;
20067;SDS011;10194;50.824;7.134;2023-08-12T00:40:46;172.47;;;105.40;;
20067;SDS011;10194;50.824;7.134;2023-08-12T00:43:11;179.03;;;106.90;;
20067;SDS011;10194;50.824;7.134;2023-08-12T00:45:37;175.50;;;107.23;;
20067;SDS011;10194;50.824;7.134;2023-08-12T00:48:03;173.47;;;104.20;;
20067;SDS011;10194;50.824;7.134;2023-08-12T00:50:31;175.03;;;103.80;;
20067;SDS011;10194;50.824;7.134;2023-08-12T00:52:57;175.03;;;104.67;;
20067;SDS011;10194;50.824;7.134;2023-08-12T00:55:24;175.97;;;107.30;;
20067;SDS011;10194;50.824;7.134;2023-08-12T00:57:50;171.93;;;104.37;;
20067;SDS011;10194;50.824;7.134;2023-08-12T01:00:16;175.37;;;106.00;;
20067;SDS011;10194;50.824;7.134;2023-08-12T01:02:47;182.93;;;106.60;;
20067;SDS011;10194;50.824;7.134;2023-08-12T01:05:14;190.73;;;110.13;;
20067;SDS011;10194;50.824;7.134;2023-08-12T01:07:43;184.87;;;105.33;;
20067;SDS011;10194;50.824;7.134;2023-08-12T01:10:10;177.80;;;105.20;;
20067;SDS011;10194;50.824;7.134;2023-08-12T01:15:42;173.20;;;100.73;;
20067;SDS011;10194;50.824;7.134;2023-08-12T01:18:09;173.27;;;103.37;;
20067;SDS011;10194;50.824;7.134;2023-08-12T01:20:36;181.37;;;105.43;;
20067;SDS011;10194;50.824;7.134;2023-08-12T01:23:07;180.60;;;105.40;;
20067;SDS011;10194;50.824;7.134;2023-08-12T01:25:41;177.03;;;104.13;;
20067;SDS011;10194;50.824;7.134;2023-08-12T01:28:08;175.97;;;102.17;;
20067;SDS011;10194;50.824;7.134;2023-08-12T01:30:36;172.27;;;103.40;;
20067;SDS011;10194;50.824;7.134;2023-08-12T01:33:39;177.70;;;103.40;;
20067;SDS011;10194;50.824;7.134;2023-08-12T01:36:17;177.77;;;101.73;;
20067;SDS011;10194;50.824;7.134;2023-08-12T01:38:44;176.30;;;105.33;;
20067;SDS011;10194;50.824;7.134;2023-08-12T01:41:13;177.23;;;104.30;;
20067;SDS011;10194;50.824;7.134;2023-08-12T01:43:40;175.47;;;104.33;;
20067;SDS011;10194;50.824;7.134;2023-08-12T01:46:07;174.53;;;103.37;;
20067;SDS011;10194;50.824;7.134;2023-08-12T01:48:33;168.57;;;101.77;;
20067;SDS011;10194;50.824;7.134;2023-08-12T01:50:59;169.27;;;100.53;;
20067;SDS011;10194;50.824;7.134;2023-08-12T01:53:25;185.27;;;123.35;;
20067;SDS011;10194;50.824;7.134;2023-08-12T01:55:51;166.80;;;105.47;;
20067;SDS011;10194;50.824;7.134;2023-08-12T01:58:17;166.40;;;103.40;;
20067;SDS011;10194;50.824;7.134;2023-08-12T02:00:43;172.53;;;106.70;;
20067;SDS011;10194;50.824;7.134;2023-08-12T02:03:09;171.97;;;106.47;;
20067;SDS011;10194;50.824;7.134;2023-08-12T02:05:35;179.07;;;110.23;;
20067;SDS011;10194;50.824;7.134;2023-08-12T02:08:02;182.40;;;111.17;;
20067;SDS011;10194;50.824;7.134;2023-08-12T02:10:29;180.83;;;108.77;;
20067;SDS011;10194;50.824;7.134;2023-08-12T02:12:55;179.33;;;111.20;;
20067;SDS011;10194;50.824;7.134;2023-08-12T02:15:21;179.93;;;107.53;;
20067;SDS011;10194;50.824;7.134;2023-08-12T02:17:46;187.30;;;113.07;;
20067;SDS011;10194;50.824;7.134;2023-08-12T02:20:12;179.80;;;110.50;;
20067;SDS011;10194;50.824;7.134;2023-08-12T02:22:38;174.67;;;107.73;;
20067;SDS011;10194;50.824;7.134;2023-08-12T02:25:04;170.80;;;106.43;;
20067;SDS011;10194;50.824;7.134;2023-08-12T02:27:30;164.57;;;99.53;;
20067;SDS011;10194;50.824;7.134;2023-08-12T02:29:56;175.23;;;106.37;;
20067;SDS011;10194;50.824;7.134;2023-08-12T02:32:21;169.50;;;104.67;;
20067;SDS011;10194;50.824;7.134;2023-08-12T02:34:47;168.27;;;102.93;;
20067;SDS011;10194;50.824;7.134;2023-08-12T02:37:13;162.83;;;99.33;;
20067;SDS011;10194;50.824;7.134;2023-08-12T02:39:39;161.93;;;99.97;;
20067;SDS011;10194;50.824;7.134;2023-08-12T02:42:05;163.67;;;100.33;;
20067;SDS011;10194;50.824;7.134;2023-08-12T02:44:30;161.13;;;98.80;;
20067;SDS011;10194;50.824;7.134;2023-08-12T02:46:56;159.27;;;97.90;;
20067;SDS011;10194;50.824;7.134;2023-08-12T02:49:22;155.60;;;97.23;;
20067;SDS011;10194;50.824;7.134;2023-08-12T02:51:48;158.83;;;97.93;;
20067;SDS011;10194;50.824;7.134;2023-08-12T02:54:13;160.13;;;94.73;;
20067;SDS011;10194;50.824;7.134;2023-08-12T02:56:39;160.00;;;97.60;;
20067;SDS011;10194;50.824;7.134;2023-08-12T02:59:05;166.30;;;100.17;;
20067;SDS011;10194;50.824;7.134;2023-08-12T03:01:31;158.37;;;96.53;;
20067;SDS011;10194;50.824;7.134;2023-08-12T03:03:57;155.80;;;97.77;;
20067;SDS011;10194;50.824;7.134;2023-08-12T03:06:22;155.57;;;94.27;;
20067;SDS011;10194;50.824;7.134;2023-08-12T03:08:48;159.37;;;97.10;;
20067;SDS011;10194;50.824;7.134;2023-08-12T03:11:14;157.83;;;96.67;;
20067;SDS011;10194;50.824;7.134;2023-08-12T03:13:40;153.90;;;95.20;;
20067;SDS011;10194;50.824;7.134;2023-08-12T03:16:10;161.53;;;98.80;;
20067;SDS011;10194;50.824;7.134;2023-08-12T03:18:39;163.93;;;97.73;;
20067;SDS011;10194;50.824;7.134;2023-08-12T03:21:06;158.67;;;96.03;;
20067;SDS011;10194;50.824;7.134;2023-08-12T03:23:34;157.37;;;95.23;;
20067;SDS011;10194;50.824;7.134;2023-08-12T03:26:03;157.47;;;95.60;;
20067;SDS011;10194;50.824;7.134;2023-08-12T03:28:29;159.07;;;97.13;;
20067;SDS011;10194;50.824;7.134;2023-08-12T03:30:56;155.93;;;94.80;;
20067;SDS011;10194;50.824;7.134;2023-08-12T03:33:22;158.63;;;95.20;;
20067;SDS011;10194;50.824;7.134;2023-08-12T03:35:48;156.50;;;95.37;;
20067;SDS011;10194;50.824;7.134;2023-08-12T03:38:14;155.83;;;95.87;;
20067;SDS011;10194;50.824;7.134;2023-08-12T03:40:41;157.97;;;96.60;;
20067;SDS011;10194;50.824;7.134;2023-08-12T03:43:07;158.30;;;96.00;;
20067;SDS011;10194;50.824;7.134;2023-08-12T03:45:40;155.77;;;97.20;;
20067;SDS011;10194;50.824;7.134;2023-08-12T03:48:07;157.40;;;95.07;;
20067;SDS011;10194;50.824;7.134;2023-08-12T03:50:37;156.03;;;94.37;;
20067;SDS011;10194;50.824;7.134;2023-08-12T03:53:03;153.60;;;94.70;;
20067;SDS011;10194;50.824;7.134;2023-08-12T03:55:30;161.83;;;98.63;;
20067;SDS011;10194;50.824;7.134;2023-08-12T03:57:57;156.00;;;95.20;;
20067;SDS011;10194;50.824;7.134;2023-08-12T04:00:24;154.90;;;94.57;;
20067;SDS011;10194;50.824;7.134;2023-08-12T04:02:50;154.40;;;95.40;;
20067;SDS011;10194;50.824;7.134;2023-08-12T04:05:15;158.40;;;96.87;;
20067;SDS011;10194;50.824;7.134;2023-08-12T04:07:41;156.80;;;94.03;;
20067;SDS011;10194;50.824;7.134;2023-08-12T04:10:07;158.30;;;97.47;;
20067;SDS011;10194;50.824;7.134;2023-08-12T04:12:34;152.90;;;91.90;;
20067;SDS011;10194;50.824;7.134;2023-08-12T04:15:00;153.00;;;94.87;;
20067;SDS011;10194;50.824;7.134;2023-08-12T04:17:29;151.70;;;93.77;;
20067;SDS011;10194;50.824;7.134;2023-08-12T04:19:55;158.40;;;94.77;;
20067;SDS011;10194;50.824;7.134;2023-08-12T04:22:21;151.43;;;92.27;;
20067;SDS011;10194;50.824;7.134;2023-08-12T04:24:46;153.47;;;92.67;;
20067;SDS011;10194;50.824;7.134;2023-08-12T04:27:12;153.83;;;92.50;;
20067;SDS011;10194;50.824;7.134;2023-08-12T04:29:38;153.60;;;92.53;;
20067;SDS011;10194;50.824;7.134;2023-08-12T04:32:04;150.67;;;91.27;;
20067;SDS011;10194;50.824;7.134;2023-08-12T04:34:30;150.57;;;92.03;;
20067;SDS011;10194;50.824;7.134;2023-08-12T04:36:56;149.73;;;90.23;;
20067;SDS011;10194;50.824;7.134;2023-08-12T04:39:21;152.33;;;92.80;;
20067;SDS011;10194;50.824;7.134;2023-08-12T04:41:47;152.90;;;93.03;;
20067;SDS011;10194;50.824;7.134;2023-08-12T04:44:13;152.10;;;92.60;;
20067;SDS011;10194;50.824;7.134;2023-08-12T04:46:39;153.03;;;93.20;;
20067;SDS011;10194;50.824;7.134;2023-08-12T04:49:05;159.13;;;98.10;;
20067;SDS011;10194;50.824;7.134;2023-08-12T04:51:30;150.73;;;93.23;;
20067;SDS011;10194;50.824;7.134;2023-08-12T04:53:56;153.60;;;93.20;;
20067;SDS011;10194;50.824;7.134;2023-08-12T04:56:23;155.97;;;96.57;;
20067;SDS011;10194;50.824;7.134;2023-08-12T04:58:49;157.60;;;95.73;;
20067;SDS011;10194;50.824;7.134;2023-08-12T05:01:15;154.70;;;92.73;;
20067;SDS011;10194;50.824;7.134;2023-08-12T05:03:40;155.37;;;94.30;;
20067;SDS011;10194;50.824;7.134;2023-08-12T05:06:06;151.83;;;91.37;;
20067;SDS011;10194;50.824;7.134;2023-08-12T05:08:32;154.80;;;96.43;;
20067;SDS011;10194;50.824;7.134;2023-08-12T05:10:58;150.17;;;93.73;;
20067;SDS011;10194;50.824;7.134;2023-08-12T05:13:24;157.13;;;98.13;;
20067;SDS011;10194;50.824;7.134;2023-08-12T05:15:49;153.37;;;95.10;;
20067;SDS011;10194;50.824;7.134;2023-08-12T05:18:15;156.63;;;98.73;;
20067;SDS011;10194;50.824;7.134;2023-08-12T05:20:41;150.93;;;93.90;;
20067;SDS011;10194;50.824;7.134;2023-08-12T05:23:08;150.20;;;94.80;;
20067;SDS011;10194;50.824;7.134;2023-08-12T05:25:33;150.97;;;96.17;;
20067;SDS011;10194;50.824;7.134;2023-08-12T05:27:59;150.70;;;93.20;;
20067;SDS011;10194;50.824;7.134;2023-08-12T05:30:25;146.80;;;92.17;;
20067;SDS011;10194;50.824;7.134;2023-08-12T05:32:51;149.00;;;94.10;;
20067;SDS011;10194;50.824;7.134;2023-08-12T05:35:16;149.63;;;95.50;;
20067;SDS011;10194;50.824;7.134;2023-08-12T05:37:42;148.10;;;94.03;;
20067;SDS011;10194;50.824;7.134;2023-08-12T05:40:09;147.67;;;92.13;;
20067;SDS011;10194;50.824;7.134;2023-08-12T05:42:35;146.47;;;91.97;;
20067;SDS011;10194;50.824;7.134;2023-08-12T05:45:01;149.67;;;94.03;;
20067;SDS011;10194;50.824;7.134;2023-08-12T05:47:28;145.83;;;92.30;;
20067;SDS011;10194;50.824;7.134;2023-08-12T05:49:54;153.07;;;95.67;;
20067;SDS011;10194;50.824;7.134;2023-08-12T05:52:19;150.67;;;93.47;;
20067;SDS011;10194;50.824;7.134;2023-08-12T05:54:45;149.63;;;94.23;;
20067;SDS011;10194;50.824;7.134;2023-08-12T05:57:11;153.53;;;96.67;;
20067;SDS011;10194;50.824;7.134;2023-08-12T05:59:37;153.50;;;95.93;;
20067;SDS011;10194;50.824;7.134;2023-08-12T06:02:02;155.03;;;95.43;;
20067;SDS011;10194;50.824;7.134;2023-08-12T06:04:29;148.50;;;94.50;;
20067;SDS011;10194;50.824;7.134;2023-08-12T06:06:54;152.83;;;94.93;;
20067;SDS011;10194;50.824;7.134;2023-08-12T06:09:21;152.37;;;94.40;;
20067;SDS011;10194;50.824;7.134;2023-08-12T06:11:47;152.63;;;95.73;;
20067;SDS011;10194;50.824;7.134;2023-08-12T06:14:13;154.30;;;97.60;;
20067;SDS011;10194;50.824;7.134;2023-08-12T06:16:38;156.80;;;97.13;;
20067;SDS011;10194;50.824;7.134;2023-08-12T06:19:04;161.23;;;98.63;;
20067;SDS011;10194;50.824;7.134;2023-08-12T06:21:30;155.97;;;96.67;;
20067;SDS011;10194;50.824;7.134;2023-08-12T06:23:56;159.63;;;98.87;;
20067;SDS011;10194;50.824;7.134;2023-08-12T06:26:22;153.23;;;96.40;;
20067;SDS011;10194;50.824;7.134;2023-08-12T06:28:48;154.53;;;96.33;;
20067;SDS011;10194;50.824;7.134;2023-08-12T06:31:13;152.17;;;94.97;;
20067;SDS011;10194;50.824;7.134;2023-08-12T06:33:39;147.30;;;90.80;;
20067;SDS011;10194;50.824;7.134;2023-08-12T06:36:05;148.27;;;89.90;;
20067;SDS011;10194;50.824;7.134;2023-08-12T06:38:31;144.97;;;89.47;;
20067;SDS011;10194;50.824;7.134;2023-08-12T06:40:57;144.57;;;88.87;;
20067;SDS011;10194;50.824;7.134;2023-08-12T06:43:23;143.87;;;88.37;;
20067;SDS011;10194;50.824;7.134;2023-08-12T06:45:49;145.63;;;87.70;;
20067;SDS011;10194;50.824;7.134;2023-08-12T06:48:14;143.50;;;87.57;;
20067;SDS011;10194;50.824;7.134;2023-08-12T06:50:40;143.03;;;86.80;;
20067;SDS011;10194;50.824;7.134;2023-08-12T06:53:06;141.90;;;86.73;;
20067;SDS011;10194;50.824;7.134;2023-08-12T06:55:32;143.83;;;87.37;;
20067;SDS011;10194;50.824;7.134;2023-08-12T06:57:59;143.67;;;89.63;;
20067;SDS011;10194;50.824;7.134;2023-08-12T07:00:27;143.30;;;89.17;;
20067;SDS011;10194;50.824;7.134;2023-08-12T07:02:54;143.20;;;88.17;;
20067;SDS011;10194;50.824;7.134;2023-08-12T07:05:20;149.87;;;89.90;;
20067;SDS011;10194;50.824;7.134;2023-08-12T07:07:46;144.33;;;89.60;;
20067;SDS011;10194;50.824;7.134;2023-08-12T07:10:11;146.13;;;90.30;;
20067;SDS011;10194;50.824;7.134;2023-08-12T07:12:37;145.83;;;89.70;;
20067;SDS011;10194;50.824;7.134;2023-08-12T07:15:03;146.27;;;92.13;;
20067;SDS011;10194;50.824;7.134;2023-08-12T07:17:29;146.77;;;89.77;;
20067;SDS011;10194;50.824;7.134;2023-08-12T07:19:55;146.43;;;90.27;;
20067;SDS011;10194;50.824;7.134;2023-08-12T07:22:21;143.30;;;88.33;;
20067;SDS011;10194;50.824;7.134;2023-08-12T07:24:47;143.07;;;89.20;;
20067;SDS011;10194;50.824;7.134;2023-08-12T07:27:13;144.33;;;90.17;;
20067;SDS011;10194;50.824;7.134;2023-08-12T07:29:38;141.73;;;90.33;;
20067;SDS011;10194;50.824;7.134;2023-08-12T07:32:04;146.77;;;90.73;;
20067;SDS011;10194;50.824;7.134;2023-08-12T07:34:30;144.40;;;90.63;;
20067;SDS011;10194;50.824;7.134;2023-08-12T07:36:56;143.47;;;89.53;;
20067;SDS011;10194;50.824;7.134;2023-08-12T07:39:22;147.30;;;90.20;;
20067;SDS011;10194;50.824;7.134;2023-08-12T07:41:47;143.57;;;88.13;;
20067;SDS011;10194;50.824;7.134;2023-08-12T07:44:13;145.83;;;88.63;;
20067;SDS011;10194;50.824;7.134;2023-08-12T07:46:39;143.47;;;91.30;;
20067;SDS011;10194;50.824;7.134;2023-08-12T07:49:04;147.57;;;89.57;;
20067;SDS011;10194;50.824;7.134;2023-08-12T07:51:30;141.63;;;89.33;;
20067;SDS011;10194;50.824;7.134;2023-08-12T07:53:56;140.77;;;87.80;;
20067;SDS011;10194;50.824;7.134;2023-08-12T07:56:22;145.20;;;89.17;;
20067;SDS011;10194;50.824;7.134;2023-08-12T07:58:47;143.33;;;88.20;;
20067;SDS011;10194;50.824;7.134;2023-08-12T08:01:13;145.97;;;89.77;;
20067;SDS011;10194;50.824;7.134;2023-08-12T08:03:39;146.00;;;90.83;;
20067;SDS011;10194;50.824;7.134;2023-08-12T08:06:05;146.93;;;92.20;;
20067;SDS011;10194;50.824;7.134;2023-08-12T08:08:30;146.50;;;91.93;;
20067;SDS011;10194;50.824;7.134;2023-08-12T08:10:56;144.37;;;92.23;;
20067;SDS011;10194;50.824;7.134;2023-08-12T08:13:22;148.60;;;92.27;;
20067;SDS011;10194;50.824;7.134;2023-08-12T08:15:47;146.30;;;93.90;;
20067;SDS011;10194;50.824;7.134;2023-08-12T08:18:13;145.13;;;93.07;;
20067;SDS011;10194;50.824;7.134;2023-08-12T08:20:41;146.27;;;93.03;;
20067;SDS011;10194;50.824;7.134;2023-08-12T08:23:07;147.70;;;94.93;;
20067;SDS011;10194;50.824;7.134;2023-08-12T08:25:33;147.03;;;91.87;;
20067;SDS011;10194;50.824;7.134;2023-08-12T08:27:59;144.50;;;93.63;;
20067;SDS011;10194;50.824;7.134;2023-08-12T08:30:25;142.77;;;91.93;;
20067;SDS011;10194;50.824;7.134;2023-08-12T08:32:50;145.87;;;91.53;;
20067;SDS011;10194;50.824;7.134;2023-08-12T08:35:16;145.20;;;93.40;;
20067;SDS011;10194;50.824;7.134;2023-08-12T08:37:42;145.80;;;92.60;;
20067;SDS011;10194;50.824;7.134;2023-08-12T08:40:08;148.47;;;94.07;;
20067;SDS011;10194;50.824;7.134;2023-08-12T08:42:34;143.40;;;91.50;;
20067;SDS011;10194;50.824;7.134;2023-08-12T08:45:02;144.57;;;92.07;;
20067;SDS011;10194;50.824;7.134;2023-08-12T08:47:38;145.33;;;92.33;;
20067;SDS011;10194;50.824;7.134;2023-08-12T08:50:06;152.50;;;97.33;;
20067;SDS011;10194;50.824;7.134;2023-08-12T08:52:35;148.50;;;94.83;;
20067;SDS011;10194;50.824;7.134;2023-08-12T08:55:03;146.10;;;94.20;;
20067;SDS011;10194;50.824;7.134;2023-08-12T08:57:31;150.53;;;94.97;;
20067;SDS011;10194;50.824;7.134;2023-08-12T08:59:57;148.13;;;96.20;;
20067;SDS011;10194;50.824;7.134;2023-08-12T09:02:24;148.60;;;96.83;;
20067;SDS011;10194;50.824;7.134;2023-08-12T09:04:52;146.13;;;95.40;;
20067;SDS011;10194;50.824;7.134;2023-08-12T09:07:19;148.03;;;97.60;;
20067;SDS011;10194;50.824;7.134;2023-08-12T09:09:46;149.43;;;97.50;;
20067;SDS011;10194;50.824;7.134;2023-08-12T09:12:18;148.80;;;98.33;;
20067;SDS011;10194;50.824;7.134;2023-08-12T09:14:45;148.70;;;97.67;;
20067;SDS011;10194;50.824;7.134;2023-08-12T09:17:11;147.73;;;97.80;;
20067;SDS011;10194;50.824;7.134;2023-08-12T09:19:37;153.53;;;100.47;;
20067;SDS011;10194;50.824;7.134;2023-08-12T09:22:03;148.10;;;97.57;;
20067;SDS011;10194;50.824;7.134;2023-08-12T09:24:34;147.63;;;97.20;;
20067;SDS011;10194;50.824;7.134;2023-08-12T09:27:00;149.27;;;98.97;;
20067;SDS011;10194;50.824;7.134;2023-08-12T09:29:29;149.30;;;97.40;;
20067;SDS011;10194;50.824;7.134;2023-08-12T09:34:36;147.77;;;94.20;;
20067;SDS011;10194;50.824;7.134;2023-08-12T09:37:02;148.77;;;96.73;;
20067;SDS011;10194;50.824;7.134;2023-08-12T09:39:28;149.30;;;97.23;;
20067;SDS011;10194;50.824;7.134;2023-08-12T09:41:57;158.83;;;100.43;;
20067;SDS011;10194;50.824;7.134;2023-08-12T09:44:24;149.70;;;94.73;;
20067;SDS011;10194;50.824;7.134;2023-08-12T09:46:56;147.20;;;96.93;;
20067;SDS011;10194;50.824;7.134;2023-08-12T09:49:24;147.57;;;96.83;;
20067;SDS011;10194;50.824;7.134;2023-08-12T09:51:50;154.57;;;99.30;;
20067;SDS011;10194;50.824;7.134;2023-08-12T09:54:17;149.77;;;98.03;;
20067;SDS011;10194;50.824;7.134;2023-08-12T09:56:44;149.43;;;98.60;;
20067;SDS011;10194;50.824;7.134;2023-08-12T09:59:15;153.17;;;100.07;;
20067;SDS011;10194;50.824;7.134;2023-08-12T10:01:48;148.17;;;97.67;;
20067;SDS011;10194;50.824;7.134;2023-08-12T10:04:18;147.17;;;96.57;;
20067;SDS011;10194;50.824;7.134;2023-08-12T10:06:47;146.07;;;96.23;;
20067;SDS011;10194;50.824;7.134;2023-08-12T10:09:15;149.93;;;98.87;;
20067;SDS011;10194;50.824;7.134;2023-08-12T10:11:45;145.03;;;95.33;;
20067;SDS011;10194;50.824;7.134;2023-08-12T10:14:11;148.80;;;98.37;;
20067;SDS011;10194;50.824;7.134;2023-08-12T10:16:38;146.30;;;96.33;;
20067;SDS011;10194;50.824;7.134;2023-08-12T10:19:05;153.73;;;98.97;;
20067;SDS011;10194;50.824;7.134;2023-08-12T10:21:31;154.37;;;98.90;;
20067;SDS011;10194;50.824;7.134;2023-08-12T10:23:59;146.10;;;94.07;;
20067;SDS011;10194;50.824;7.134;2023-08-12T10:26:25;145.27;;;94.77;;
20067;SDS011;10194;50.824;7.134;2023-08-12T10:28:51;147.63;;;96.47;;
20067;SDS011;10194;50.824;7.134;2023-08-12T10:31:18;147.83;;;97.13;;
20067;SDS011;10194;50.824;7.134;2023-08-12T10:33:44;149.23;;;92.53;;
20067;SDS011;10194;50.824;7.134;2023-08-12T10:36:14;149.27;;;95.40;;
20067;SDS011;10194;50.824;7.134;2023-08-12T10:38:41;148.57;;;97.83;;
20067;SDS011;10194;50.824;7.134;2023-08-12T10:43:57;147.00;;;98.70;;
20067;SDS011;10194;50.824;7.134;2023-08-12T10:49:04;152.90;;;102.27;;
20067;SDS011;10194;50.824;7.134;2023-08-12T11:05:03;151.70;;;105.80;;
20067;SDS011;10194;50.824;7.134;2023-08-12T11:10:26;150.93;;;105.47;;
20067;SDS011;10194;50.824;7.134;2023-08-12T11:15:31;151.80;;;104.67;;
20067;SDS011;10194;50.824;7.134;2023-08-12T11:20:43;151.33;;;104.23;;
20067;SDS011;10194;50.824;7.134;2023-08-12T11:23:09;152.37;;;103.73;;
20067;SDS011;10194;50.824;7.134;2023-08-12T11:25:37;152.27;;;101.70;;
20067;SDS011;10194;50.824;7.134;2023-08-12T11:28:05;154.50;;;102.87;;
20067;SDS011;10194;50.824;7.134;2023-08-12T11:30:32;151.87;;;101.93;;
20067;SDS011;10194;50.824;7.134;2023-08-12T11:32:58;154.53;;;100.03;;
20067;SDS011;10194;50.824;7.134;2023-08-12T11:35:26;149.97;;;99.30;;
20067;SDS011;10194;50.824;7.134;2023-08-12T11:37:54;148.87;;;97.53;;
20067;SDS011;10194;50.824;7.134;2023-08-12T11:40:21;147.00;;;96.70;;
20067;SDS011;10194;50.824;7.134;2023-08-12T11:42:49;147.77;;;96.03;;
20067;SDS011;10194;50.824;7.134;2023-08-12T11:45:24;154.73;;;98.23;;
20067;SDS011;10194;50.824;7.134;2023-08-12T11:47:51;151.80;;;98.77;;
20067;SDS011;10194;50.824;7.134;2023-08-12T11:50:18;148.47;;;96.33;;
20067;SDS011;10194;50.824;7.134;2023-08-12T11:52:49;150.83;;;99.27;;
20067;SDS011;10194;50.824;7.134;2023-08-12T11:55:16;150.53;;;98.60;;
20067;SDS011;10194;50.824;7.134;2023-08-12T11:57:42;151.20;;;100.80;;
20067;SDS011;10194;50.824;7.134;2023-08-12T12:00:10;153.03;;;102.97;;
20067;SDS011;10194;50.824;7.134;2023-08-12T12:02:53;151.83;;;104.47;;
20067;SDS011;10194;50.824;7.134;2023-08-12T12:05:27;152.17;;;104.27;;
20067;SDS011;10194;50.824;7.134;2023-08-12T12:07:59;150.50;;;105.93;;
20067;SDS011;10194;50.824;7.134;2023-08-12T12:12:55;150.97;;;105.70;;
20067;SDS011;10194;50.824;7.134;2023-08-12T12:15:22;157.67;;;107.37;;
20067;SDS011;10194;50.824;7.134;2023-08-12T12:17:48;151.40;;;105.00;;
20067;SDS011;10194;50.824;7.134;2023-08-12T12:20:15;151.53;;;106.87;;
20067;SDS011;10194;50.824;7.134;2023-08-12T12:22:42;149.80;;;104.57;;
20067;SDS011;10194;50.824;7.134;2023-08-12T12:25:10;151.33;;;104.77;;
20067;SDS011;10194;50.824;7.134;2023-08-12T12:27:42;151.30;;;106.07;;
20067;SDS011;10194;50.824;7.134;2023-08-12T12:30:10;153.20;;;107.27;;
20067;SDS011;10194;50.824;7.134;2023-08-12T12:32:38;152.07;;;106.00;;
20067;SDS011;10194;50.824;7.134;2023-08-12T12:35:05;154.37;;;107.67;;
20067;SDS011;10194;50.824;7.134;2023-08-12T12:37:35;159.00;;;109.00;;
20067;SDS011;10194;50.824;7.134;2023-08-12T12:40:01;155.07;;;108.67;;
20067;SDS011;10194;50.824;7.134;2023-08-12T12:42:28;151.13;;;109.63;;
20067;SDS011;10194;50.824;7.134;2023-08-12T12:44:57;152.50;;;108.70;;
20067;SDS011;10194;50.824;7.134;2023-08-12T12:47:23;153.83;;;110.23;;
20067;SDS011;10194;50.824;7.134;2023-08-12T12:49:48;150.53;;;109.30;;
20067;SDS011;10194;50.824;7.134;2023-08-12T12:52:14;154.23;;;107.43;;
20067;SDS011;10194;50.824;7.134;2023-08-12T12:54:40;150.17;;;108.47;;
20067;SDS011;10194;50.824;7.134;2023-08-12T12:57:06;150.90;;;109.33;;
20067;SDS011;10194;50.824;7.134;2023-08-12T12:59:31;159.50;;;112.80;;
20067;SDS011;10194;50.824;7.134;2023-08-12T13:01:57;153.47;;;110.63;;
20067;SDS011;10194;50.824;7.134;2023-08-12T13:04:23;154.47;;;109.67;;
20067;SDS011;10194;50.824;7.134;2023-08-12T13:06:49;150.87;;;109.23;;
20067;SDS011;10194;50.824;7.134;2023-08-12T13:09:15;160.30;;;113.37;;
20067;SDS011;10194;50.824;7.134;2023-08-12T13:11:40;150.47;;;107.43;;
20067;SDS011;10194;50.824;7.134;2023-08-12T13:14:06;155.97;;;111.47;;
20067;SDS011;10194;50.824;7.134;2023-08-12T13:16:32;151.40;;;110.83;;
20067;SDS011;10194;50.824;7.134;2023-08-12T13:18:58;155.97;;;112.20;;
20067;SDS011;10194;50.824;7.134;2023-08-12T13:21:25;155.10;;;112.17;;
20067;SDS011;10194;50.824;7.134;2023-08-12T13:23:51;153.43;;;111.17;;
20067;SDS011;10194;50.824;7.134;2023-08-12T13:26:18;152.30;;;111.10;;
20067;SDS011;10194;50.824;7.134;2023-08-12T13:28:44;153.73;;;112.77;;
20067;SDS011;10194;50.824;7.134;2023-08-12T13:31:11;153.30;;;111.30;;
20067;SDS011;10194;50.824;7.134;2023-08-12T13:33:37;151.03;;;111.37;;
20067;SDS011;10194;50.824;7.134;2023-08-12T13:36:02;151.53;;;113.50;;
20067;SDS011;10194;50.824;7.134;2023-08-12T13:38:29;152.53;;;112.20;;
20067;SDS011;10194;50.824;7.134;2023-08-12T13:40:55;155.10;;;112.60;;
20067;SDS011;10194;50.824;7.134;2023-08-12T13:43:20;152.67;;;112.17;;
20067;SDS011;10194;50.824;7.134;2023-08-12T13:45:46;154.27;;;112.27;;
20067;SDS011;10194;50.824;7.134;2023-08-12T13:48:12;153.23;;;111.13;;
20067;SDS011;10194;50.824;7.134;2023-08-12T13:50:38;150.80;;;108.40;;
20067;SDS011;10194;50.824;7.134;2023-08-12T13:53:04;148.70;;;106.47;;
20067;SDS011;10194;50.824;7.134;2023-08-12T13:55:29;151.63;;;105.30;;
20067;SDS011;10194;50.824;7.134;2023-08-12T13:57:55;148.80;;;103.97;;
20067;SDS011;10194;50.824;7.134;2023-08-12T14:00:21;150.30;;;105.13;;
20067;SDS011;10194;50.824;7.134;2023-08-12T14:02:49;147.30;;;103.83;;
20067;SDS011;10194;50.824;7.134;2023-08-12T14:05:15;150.13;;;103.60;;
20067;SDS011;10194;50.824;7.134;2023-08-12T14:07:41;148.00;;;102.03;;
20067;SDS011;10194;50.824;7.134;2023-08-12T14:10:07;148.43;;;102.43;;
20067;SDS011;10194;50.824;7.134;2023-08-12T14:12:33;149.70;;;103.23;;
20067;SDS011;10194;50.824;7.134;2023-08-12T14:14:59;144.07;;;98.13;;
20067;SDS011;10194;50.824;7.134;2023-08-12T14:17:25;148.67;;;102.27;;
20067;SDS011;10194;50.824;7.134;2023-08-12T14:19:51;147.33;;;99.50;;
20067;SDS011;10194;50.824;7.134;2023-08-12T14:22:18;148.57;;;102.80;;
20067;SDS011;10194;50.824;7.134;2023-08-12T14:24:45;146.00;;;100.23;;
20067;SDS011;10194;50.824;7.134;2023-08-12T14:27:14;147.13;;;102.67;;
20067;SDS011;10194;50.824;7.134;2023-08-12T14:29:42;148.10;;;99.63;;
20067;SDS011;10194;50.824;7.134;2023-08-12T14:32:09;148.30;;;101.03;;
20067;SDS011;10194;50.824;7.134;2023-08-12T14:34:34;149.57;;;103.07;;
20067;SDS011;10194;50.824;7.134;2023-08-12T14:37:01;147.97;;;102.10;;